This is the latest recevied weather packets stored in our database for station/object KA7RLM. If no packets are shown the sender has not sent any weather packets the latest 10 day(s).
| Time | Temp. | Humidity | Pressure | Rain* | Wind** | Luminosity | Snow |
|---|---|---|---|---|---|---|---|
| 1778098219 | 15° C | 79% | 1021 hPa | 0 mm | - | - | - |
| 1778089222 | 13.33° C | 87% | 1020.8 hPa | 0 mm | - | - | - |
| 1778086816 | 12.78° C | 89% | 1020.5 hPa | 0 mm | - | - | - |
| 1778082631 | 12.22° C | 91% | 1020.2 hPa | 0 mm | - | - | - |
| 1778082021 | 12.22° C | 92% | 1020.1 hPa | 0 mm | - | - | - |
| 1778077220 | 11.67° C | 94% | 1020.1 hPa | 0 mm | - | - | - |
| 1778076643 | 11.67° C | 94% | 1019.9 hPa | 0 mm | - | - | - |
| 1778076026 | 11.67° C | 93% | 1020.1 hPa | 0 mm | - | - | - |
| 1778073620 | 11.67° C | 94% | 1019.5 hPa | 0 mm | - | - | - |
| 1778064628 | 12.22° C | 90% | 1018.8 hPa | 0 mm | - | - | - |
| 1778064031 | 12.78° C | 89% | 1018.7 hPa | 0 mm | - | - | - |
| 1778063417 | 12.78° C | 89% | 1018.6 hPa | 0 mm | - | - | - |
| 1778059864 | 12.78° C | 89% | 1018.1 hPa | 0 mm | - | - | - |
| 1778059228 | 12.78° C | 89% | 1018.1 hPa | 0 mm | - | - | - |
| 1778058016 | 12.78° C | 88% | 1018 hPa | 0 mm | - | - | - |
| 1778052017 | 13.33° C | 87% | 1017.4 hPa | 0 mm | - | - | - |
| 1778044833 | 15° C | 83% | 1016.4 hPa | 0 mm | - | - | - |
| 1778041832 | 15.56° C | 80% | 1016.1 hPa | 0 mm | - | - | - |
| 1778038217 | 17.78° C | 71% | 1015.4 hPa | 0 mm | - | - | - |
| 1778037633 | 18.33° C | 69% | 1015.4 hPa | 0 mm | - | - | - |
| 1778032817 | 20.56° C | 63% | 1015.2 hPa | 0 mm | - | - | - |
| 1778030425 | 22.22° C | 58% | 1015.2 hPa | 0 mm | - | - | - |
| 1778026817 | 20.56° C | 61% | 1015.4 hPa | 0 mm | - | - | - |
| 1778026246 | 21.11° C | 60% | 1015.4 hPa | 0 mm | - | - | - |
| 1778025624 | 20.56° C | 62% | 1015.6 hPa | 0 mm | - | - | - |
* Rain latest hour (hover to see other rain measurements)
** Current wind speed in m/s (hover to see current wind gust speed)